sensor_id;sensor_type;location;lat;lon;timestamp;P1;durP1;ratioP1;P2;durP2;ratioP2
25917;SDS011;13899;51.174;4.456;2023-02-20T00:00:58;16.60;;;13.17;;
25917;SDS011;13899;51.174;4.456;2023-02-20T00:03:24;19.80;;;12.73;;
25917;SDS011;13899;51.174;4.456;2023-02-20T00:05:49;17.07;;;12.67;;
25917;SDS011;13899;51.174;4.456;2023-02-20T00:08:15;14.53;;;12.53;;
25917;SDS011;13899;51.174;4.456;2023-02-20T00:10:43;20.08;;;12.57;;
25917;SDS011;13899;51.174;4.456;2023-02-20T00:13:09;17.67;;;13.20;;
25917;SDS011;13899;51.174;4.456;2023-02-20T00:15:35;15.70;;;12.27;;
25917;SDS011;13899;51.174;4.456;2023-02-20T00:18:00;18.33;;;12.60;;
25917;SDS011;13899;51.174;4.456;2023-02-20T00:20:27;19.60;;;13.07;;
25917;SDS011;13899;51.174;4.456;2023-02-20T00:22:54;15.10;;;12.38;;
25917;SDS011;13899;51.174;4.456;2023-02-20T00:25:21;14.73;;;12.10;;
25917;SDS011;13899;51.174;4.456;2023-02-20T00:27:47;19.93;;;13.30;;
25917;SDS011;13899;51.174;4.456;2023-02-20T00:30:17;20.53;;;12.97;;
25917;SDS011;13899;51.174;4.456;2023-02-20T00:32:45;20.15;;;13.10;;
25917;SDS011;13899;51.174;4.456;2023-02-20T00:35:12;25.73;;;14.35;;
25917;SDS011;13899;51.174;4.456;2023-02-20T00:37:39;18.80;;;11.90;;
25917;SDS011;13899;51.174;4.456;2023-02-20T00:40:05;21.50;;;14.43;;
25917;SDS011;13899;51.174;4.456;2023-02-20T00:42:33;23.15;;;14.25;;
25917;SDS011;13899;51.174;4.456;2023-02-20T00:44:59;20.33;;;12.87;;
25917;SDS011;13899;51.174;4.456;2023-02-20T00:47:27;22.42;;;13.23;;
25917;SDS011;13899;51.174;4.456;2023-02-20T00:49:53;23.90;;;13.67;;
25917;SDS011;13899;51.174;4.456;2023-02-20T00:52:19;18.35;;;12.07;;
25917;SDS011;13899;51.174;4.456;2023-02-20T00:54:45;25.10;;;14.90;;
25917;SDS011;13899;51.174;4.456;2023-02-20T00:57:11;32.23;;;16.57;;
25917;SDS011;13899;51.174;4.456;2023-02-20T00:59:36;28.80;;;14.87;;
25917;SDS011;13899;51.174;4.456;2023-02-20T01:02:03;22.10;;;14.73;;
25917;SDS011;13899;51.174;4.456;2023-02-20T01:04:29;30.15;;;15.07;;
25917;SDS011;13899;51.174;4.456;2023-02-20T01:06:54;26.33;;;16.40;;
25917;SDS011;13899;51.174;4.456;2023-02-20T01:09:24;35.00;;;17.67;;
25917;SDS011;13899;51.174;4.456;2023-02-20T01:11:52;28.27;;;16.42;;
25917;SDS011;13899;51.174;4.456;2023-02-20T01:14:18;31.95;;;15.50;;
25917;SDS011;13899;51.174;4.456;2023-02-20T01:16:45;28.47;;;15.90;;
25917;SDS011;13899;51.174;4.456;2023-02-20T01:19:12;32.95;;;15.52;;
25917;SDS011;13899;51.174;4.456;2023-02-20T01:21:38;27.03;;;13.73;;
25917;SDS011;13899;51.174;4.456;2023-02-20T01:24:03;22.40;;;14.50;;
25917;SDS011;13899;51.174;4.456;2023-02-20T01:26:29;39.53;;;18.73;;
25917;SDS011;13899;51.174;4.456;2023-02-20T01:28:55;27.23;;;17.87;;
25917;SDS011;13899;51.174;4.456;2023-02-20T01:31:20;28.97;;;17.80;;
25917;SDS011;13899;51.174;4.456;2023-02-20T01:33:46;32.57;;;18.57;;
25917;SDS011;13899;51.174;4.456;2023-02-20T01:36:12;27.63;;;17.40;;
25917;SDS011;13899;51.174;4.456;2023-02-20T01:38:40;33.30;;;18.20;;
25917;SDS011;13899;51.174;4.456;2023-02-20T01:41:07;33.75;;;17.27;;
25917;SDS011;13899;51.174;4.456;2023-02-20T01:43:34;26.73;;;17.25;;
25917;SDS011;13899;51.174;4.456;2023-02-20T01:48:54;33.38;;;19.42;;
25917;SDS011;13899;51.174;4.456;2023-02-20T01:51:29;34.45;;;19.25;;
25917;SDS011;13899;51.174;4.456;2023-02-20T01:53:59;33.67;;;18.55;;
25917;SDS011;13899;51.174;4.456;2023-02-20T01:56:25;30.17;;;18.63;;
25917;SDS011;13899;51.174;4.456;2023-02-20T01:58:51;26.88;;;17.38;;
25917;SDS011;13899;51.174;4.456;2023-02-20T02:01:18;30.80;;;17.95;;
25917;SDS011;13899;51.174;4.456;2023-02-20T02:03:45;30.37;;;18.90;;
25917;SDS011;13899;51.174;4.456;2023-02-20T02:06:13;25.05;;;17.25;;
25917;SDS011;13899;51.174;4.456;2023-02-20T02:08:40;26.67;;;17.13;;
25917;SDS011;13899;51.174;4.456;2023-02-20T02:11:09;29.80;;;16.27;;
25917;SDS011;13899;51.174;4.456;2023-02-20T02:13:37;27.30;;;17.08;;
25917;SDS011;13899;51.174;4.456;2023-02-20T02:40:34;38.30;;;17.00;;
25917;SDS011;13899;51.174;4.456;2023-02-20T02:46:12;33.08;;;17.17;;
25917;SDS011;13899;51.174;4.456;2023-02-20T02:48:46;33.17;;;16.75;;
25917;SDS011;13899;51.174;4.456;2023-02-20T02:51:19;28.33;;;16.35;;
25917;SDS011;13899;51.174;4.456;2023-02-20T02:56:36;32.95;;;16.48;;
25917;SDS011;13899;51.174;4.456;2023-02-20T02:59:09;36.30;;;18.00;;
25917;SDS011;13899;51.174;4.456;2023-02-20T03:01:40;32.38;;;14.63;;
25917;SDS011;13899;51.174;4.456;2023-02-20T03:04:10;26.25;;;16.42;;
25917;SDS011;13899;51.174;4.456;2023-02-20T03:06:38;34.90;;;16.92;;
25917;SDS011;13899;51.174;4.456;2023-02-20T03:09:12;34.22;;;14.50;;
25917;SDS011;13899;51.174;4.456;2023-02-20T03:11:45;32.08;;;16.30;;
25917;SDS011;13899;51.174;4.456;2023-02-20T03:14:31;30.27;;;15.93;;
25917;SDS011;13899;51.174;4.456;2023-02-20T03:19:59;34.65;;;16.65;;
25917;SDS011;13899;51.174;4.456;2023-02-20T03:22:31;34.05;;;16.30;;
25917;SDS011;13899;51.174;4.456;2023-02-20T03:28:08;36.25;;;14.55;;
25917;SDS011;13899;51.174;4.456;2023-02-20T03:30:52;21.50;;;14.48;;
25917;SDS011;13899;51.174;4.456;2023-02-20T03:33:35;23.20;;;13.63;;
25917;SDS011;13899;51.174;4.456;2023-02-20T03:36:26;20.48;;;13.65;;
25917;SDS011;13899;51.174;4.456;2023-02-20T03:39:22;28.50;;;12.13;;
25917;SDS011;13899;51.174;4.456;2023-02-20T03:42:11;22.60;;;12.48;;
25917;SDS011;13899;51.174;4.456;2023-02-20T03:44:57;22.73;;;11.77;;
25917;SDS011;13899;51.174;4.456;2023-02-20T03:47:26;27.50;;;11.38;;
25917;SDS011;13899;51.174;4.456;2023-02-20T03:49:53;25.70;;;11.68;;
25917;SDS011;13899;51.174;4.456;2023-02-20T03:52:20;24.55;;;11.20;;
25917;SDS011;13899;51.174;4.456;2023-02-20T03:54:47;22.55;;;10.63;;
25917;SDS011;13899;51.174;4.456;2023-02-20T03:57:14;26.65;;;12.27;;
25917;SDS011;13899;51.174;4.456;2023-02-20T03:59:45;21.30;;;10.75;;
25917;SDS011;13899;51.174;4.456;2023-02-20T04:02:41;22.90;;;12.52;;
25917;SDS011;13899;51.174;4.456;2023-02-20T04:05:11;23.50;;;10.40;;
25917;SDS011;13899;51.174;4.456;2023-02-20T04:08:06;22.45;;;11.02;;
25917;SDS011;13899;51.174;4.456;2023-02-20T04:13:25;24.92;;;11.80;;
25917;SDS011;13899;51.174;4.456;2023-02-20T04:15:51;19.10;;;10.17;;
25917;SDS011;13899;51.174;4.456;2023-02-20T04:20:45;32.03;;;12.25;;
25917;SDS011;13899;51.174;4.456;2023-02-20T04:23:15;19.33;;;10.50;;
25917;SDS011;13899;51.174;4.456;2023-02-20T04:28:10;18.27;;;9.52;;
25917;SDS011;13899;51.174;4.456;2023-02-20T04:30:38;14.35;;;8.20;;
25917;SDS011;13899;51.174;4.456;2023-02-20T04:33:04;22.00;;;9.07;;
25917;SDS011;13899;51.174;4.456;2023-02-20T04:35:29;21.53;;;10.00;;
25917;SDS011;13899;51.174;4.456;2023-02-20T04:37:55;19.27;;;8.93;;
25917;SDS011;13899;51.174;4.456;2023-02-20T04:40:21;28.38;;;9.68;;
25917;SDS011;13899;51.174;4.456;2023-02-20T04:42:48;25.60;;;8.32;;
25917;SDS011;13899;51.174;4.456;2023-02-20T04:45:14;20.03;;;9.03;;
25917;SDS011;13899;51.174;4.456;2023-02-20T04:47:41;14.57;;;8.25;;
25917;SDS011;13899;51.174;4.456;2023-02-20T04:50:08;14.27;;;7.57;;
25917;SDS011;13899;51.174;4.456;2023-02-20T04:52:37;15.88;;;9.27;;
25917;SDS011;13899;51.174;4.456;2023-02-20T04:55:05;18.95;;;8.30;;
25917;SDS011;13899;51.174;4.456;2023-02-20T04:57:31;17.65;;;8.07;;
25917;SDS011;13899;51.174;4.456;2023-02-20T04:59:57;19.57;;;8.00;;
25917;SDS011;13899;51.174;4.456;2023-02-20T05:02:22;19.00;;;8.03;;
25917;SDS011;13899;51.174;4.456;2023-02-20T05:04:49;17.00;;;8.23;;
25917;SDS011;13899;51.174;4.456;2023-02-20T05:07:15;23.52;;;7.93;;
25917;SDS011;13899;51.174;4.456;2023-02-20T05:09:42;23.50;;;6.88;;
25917;SDS011;13899;51.174;4.456;2023-02-20T05:12:08;16.75;;;7.68;;
25917;SDS011;13899;51.174;4.456;2023-02-20T05:17:01;16.27;;;8.43;;
25917;SDS011;13899;51.174;4.456;2023-02-20T05:19:27;14.75;;;7.40;;
25917;SDS011;13899;51.174;4.456;2023-02-20T05:21:52;13.43;;;7.20;;
25917;SDS011;13899;51.174;4.456;2023-02-20T05:24:36;12.02;;;8.13;;
25917;SDS011;13899;51.174;4.456;2023-02-20T05:27:02;11.93;;;6.87;;
25917;SDS011;13899;51.174;4.456;2023-02-20T05:29:28;17.00;;;9.03;;
25917;SDS011;13899;51.174;4.456;2023-02-20T05:31:53;19.30;;;10.63;;
25917;SDS011;13899;51.174;4.456;2023-02-20T05:34:19;14.40;;;7.30;;
25917;SDS011;13899;51.174;4.456;2023-02-20T05:36:50;16.52;;;6.93;;
25917;SDS011;13899;51.174;4.456;2023-02-20T05:39:17;18.98;;;7.75;;
25917;SDS011;13899;51.174;4.456;2023-02-20T05:41:42;18.27;;;8.93;;
25917;SDS011;13899;51.174;4.456;2023-02-20T05:44:09;16.83;;;6.78;;
25917;SDS011;13899;51.174;4.456;2023-02-20T05:46:38;16.60;;;6.97;;
25917;SDS011;13899;51.174;4.456;2023-02-20T05:49:05;12.93;;;6.95;;
25917;SDS011;13899;51.174;4.456;2023-02-20T05:51:31;18.77;;;8.40;;
25917;SDS011;13899;51.174;4.456;2023-02-20T05:53:57;21.33;;;8.07;;
25917;SDS011;13899;51.174;4.456;2023-02-20T05:56:22;20.40;;;8.23;;
25917;SDS011;13899;51.174;4.456;2023-02-20T05:58:48;12.03;;;7.73;;
25917;SDS011;13899;51.174;4.456;2023-02-20T06:01:18;18.13;;;8.27;;
25917;SDS011;13899;51.174;4.456;2023-02-20T06:03:45;16.15;;;8.05;;
25917;SDS011;13899;51.174;4.456;2023-02-20T06:06:11;15.67;;;8.10;;
25917;SDS011;13899;51.174;4.456;2023-02-20T06:08:37;11.30;;;7.57;;
25917;SDS011;13899;51.174;4.456;2023-02-20T06:11:04;17.75;;;8.50;;
25917;SDS011;13899;51.174;4.456;2023-02-20T06:13:29;18.00;;;8.27;;
25917;SDS011;13899;51.174;4.456;2023-02-20T06:15:55;12.40;;;7.93;;
25917;SDS011;13899;51.174;4.456;2023-02-20T06:18:21;10.23;;;7.67;;
25917;SDS011;13899;51.174;4.456;2023-02-20T06:20:46;20.50;;;9.53;;
25917;SDS011;13899;51.174;4.456;2023-02-20T06:23:12;16.30;;;8.63;;
25917;SDS011;13899;51.174;4.456;2023-02-20T06:25:37;11.10;;;9.03;;
25917;SDS011;13899;51.174;4.456;2023-02-20T06:28:03;13.00;;;8.32;;
25917;SDS011;13899;51.174;4.456;2023-02-20T06:30:29;15.17;;;9.70;;
25917;SDS011;13899;51.174;4.456;2023-02-20T06:32:55;19.10;;;7.77;;
25917;SDS011;13899;51.174;4.456;2023-02-20T06:35:20;19.57;;;10.60;;
25917;SDS011;13899;51.174;4.456;2023-02-20T06:37:46;19.00;;;9.77;;
25917;SDS011;13899;51.174;4.456;2023-02-20T06:40:11;14.48;;;8.50;;
25917;SDS011;13899;51.174;4.456;2023-02-20T06:42:37;22.25;;;10.48;;
25917;SDS011;13899;51.174;4.456;2023-02-20T06:45:03;16.30;;;8.60;;
25917;SDS011;13899;51.174;4.456;2023-02-20T06:47:29;19.27;;;9.93;;
25917;SDS011;13899;51.174;4.456;2023-02-20T06:49:54;11.93;;;8.90;;
25917;SDS011;13899;51.174;4.456;2023-02-20T06:52:20;20.70;;;10.20;;
25917;SDS011;13899;51.174;4.456;2023-02-20T06:54:45;24.63;;;9.98;;
25917;SDS011;13899;51.174;4.456;2023-02-20T06:57:11;15.50;;;9.80;;
25917;SDS011;13899;51.174;4.456;2023-02-20T06:59:37;13.47;;;9.47;;
25917;SDS011;13899;51.174;4.456;2023-02-20T07:02:06;30.35;;;11.43;;
25917;SDS011;13899;51.174;4.456;2023-02-20T07:04:36;22.88;;;11.05;;
25917;SDS011;13899;51.174;4.456;2023-02-20T07:07:01;15.67;;;10.33;;
25917;SDS011;13899;51.174;4.456;2023-02-20T07:09:27;23.45;;;10.52;;
25917;SDS011;13899;51.174;4.456;2023-02-20T07:11:52;20.67;;;14.20;;
25917;SDS011;13899;51.174;4.456;2023-02-20T07:14:19;19.37;;;10.73;;
25917;SDS011;13899;51.174;4.456;2023-02-20T07:16:45;19.65;;;11.60;;
25917;SDS011;13899;51.174;4.456;2023-02-20T07:19:10;14.07;;;9.15;;
25917;SDS011;13899;51.174;4.456;2023-02-20T07:21:36;20.50;;;9.50;;
25917;SDS011;13899;51.174;4.456;2023-02-20T07:24:02;16.02;;;10.80;;
25917;SDS011;13899;51.174;4.456;2023-02-20T07:26:28;24.13;;;10.67;;
25917;SDS011;13899;51.174;4.456;2023-02-20T07:28:54;21.85;;;10.73;;
25917;SDS011;13899;51.174;4.456;2023-02-20T07:31:27;13.52;;;9.70;;
25917;SDS011;13899;51.174;4.456;2023-02-20T07:33:52;19.07;;;10.10;;
25917;SDS011;13899;51.174;4.456;2023-02-20T07:36:18;19.15;;;10.07;;
25917;SDS011;13899;51.174;4.456;2023-02-20T07:38:51;14.27;;;9.60;;
25917;SDS011;13899;51.174;4.456;2023-02-20T07:41:21;21.45;;;9.63;;
25917;SDS011;13899;51.174;4.456;2023-02-20T07:46:13;16.70;;;10.80;;
25917;SDS011;13899;51.174;4.456;2023-02-20T07:48:39;20.47;;;11.00;;
25917;SDS011;13899;51.174;4.456;2023-02-20T07:51:04;15.57;;;11.18;;
25917;SDS011;13899;51.174;4.456;2023-02-20T07:53:30;23.70;;;10.73;;
25917;SDS011;13899;51.174;4.456;2023-02-20T07:55:56;19.13;;;10.23;;
25917;SDS011;13899;51.174;4.456;2023-02-20T07:58:21;15.67;;;9.00;;
25917;SDS011;13899;51.174;4.456;2023-02-20T08:00:48;29.15;;;10.70;;
25917;SDS011;13899;51.174;4.456;2023-02-20T08:03:15;18.08;;;10.10;;
25917;SDS011;13899;51.174;4.456;2023-02-20T08:05:41;18.27;;;11.47;;
25917;SDS011;13899;51.174;4.456;2023-02-20T08:08:07;22.17;;;10.98;;
25917;SDS011;13899;51.174;4.456;2023-02-20T08:10:33;24.77;;;11.90;;
25917;SDS011;13899;51.174;4.456;2023-02-20T08:12:59;19.38;;;10.07;;
25917;SDS011;13899;51.174;4.456;2023-02-20T08:15:26;20.05;;;10.88;;
25917;SDS011;13899;51.174;4.456;2023-02-20T08:17:52;21.80;;;10.63;;
25917;SDS011;13899;51.174;4.456;2023-02-20T08:20:17;15.32;;;11.48;;
25917;SDS011;13899;51.174;4.456;2023-02-20T08:22:45;26.05;;;11.95;;
25917;SDS011;13899;51.174;4.456;2023-02-20T08:25:12;17.52;;;11.63;;
25917;SDS011;13899;51.174;4.456;2023-02-20T08:27:46;16.48;;;10.27;;
25917;SDS011;13899;51.174;4.456;2023-02-20T08:30:15;15.38;;;10.35;;
25917;SDS011;13899;51.174;4.456;2023-02-20T08:32:43;21.60;;;11.45;;
25917;SDS011;13899;51.174;4.456;2023-02-20T08:35:08;13.83;;;12.27;;
25917;SDS011;13899;51.174;4.456;2023-02-20T08:37:34;13.73;;;11.10;;
25917;SDS011;13899;51.174;4.456;2023-02-20T08:39:59;22.10;;;12.63;;
25917;SDS011;13899;51.174;4.456;2023-02-20T08:42:30;15.77;;;9.20;;
25917;SDS011;13899;51.174;4.456;2023-02-20T08:44:56;25.63;;;9.97;;
25917;SDS011;13899;51.174;4.456;2023-02-20T08:47:22;20.33;;;12.90;;
25917;SDS011;13899;51.174;4.456;2023-02-20T08:49:47;15.00;;;12.73;;
25917;SDS011;13899;51.174;4.456;2023-02-20T08:52:13;20.90;;;12.80;;
25917;SDS011;13899;51.174;4.456;2023-02-20T08:54:39;22.40;;;14.35;;
25917;SDS011;13899;51.174;4.456;2023-02-20T08:57:08;23.65;;;13.60;;
25917;SDS011;13899;51.174;4.456;2023-02-20T08:59:33;17.67;;;12.70;;
25917;SDS011;13899;51.174;4.456;2023-02-20T09:02:01;15.93;;;14.25;;
25917;SDS011;13899;51.174;4.456;2023-02-20T09:04:26;17.07;;;11.03;;
25917;SDS011;13899;51.174;4.456;2023-02-20T09:06:52;14.30;;;11.20;;
25917;SDS011;13899;51.174;4.456;2023-02-20T09:09:18;22.98;;;11.15;;
25917;SDS011;13899;51.174;4.456;2023-02-20T09:11:43;17.07;;;10.63;;
25917;SDS011;13899;51.174;4.456;2023-02-20T09:14:09;19.37;;;11.23;;
25917;SDS011;13899;51.174;4.456;2023-02-20T09:16:34;21.35;;;12.20;;
25917;SDS011;13899;51.174;4.456;2023-02-20T09:19:00;21.25;;;12.20;;
25917;SDS011;13899;51.174;4.456;2023-02-20T09:21:25;22.17;;;12.70;;
25917;SDS011;13899;51.174;4.456;2023-02-20T09:23:53;16.67;;;12.43;;
25917;SDS011;13899;51.174;4.456;2023-02-20T09:26:18;25.73;;;12.80;;
25917;SDS011;13899;51.174;4.456;2023-02-20T09:28:44;17.13;;;13.80;;
25917;SDS011;13899;51.174;4.456;2023-02-20T09:31:11;19.33;;;11.90;;
25917;SDS011;13899;51.174;4.456;2023-02-20T09:33:36;20.27;;;11.55;;
25917;SDS011;13899;51.174;4.456;2023-02-20T09:36:02;29.23;;;13.17;;
25917;SDS011;13899;51.174;4.456;2023-02-20T09:38:28;23.30;;;12.73;;
25917;SDS011;13899;51.174;4.456;2023-02-20T09:40:58;29.52;;;13.45;;
25917;SDS011;13899;51.174;4.456;2023-02-20T09:43:35;26.35;;;14.30;;
25917;SDS011;13899;51.174;4.456;2023-02-20T09:46:21;18.77;;;11.95;;
25917;SDS011;13899;51.174;4.456;2023-02-20T09:51:32;26.83;;;13.18;;
25917;SDS011;13899;51.174;4.456;2023-02-20T09:56:48;33.50;;;15.18;;
25917;SDS011;13899;51.174;4.456;2023-02-20T09:59:17;16.67;;;11.73;;
25917;SDS011;13899;51.174;4.456;2023-02-20T10:02:00;14.15;;;12.30;;
25917;SDS011;13899;51.174;4.456;2023-02-20T10:04:37;13.32;;;11.10;;
25917;SDS011;13899;51.174;4.456;2023-02-20T10:09:47;21.27;;;11.65;;
25917;SDS011;13899;51.174;4.456;2023-02-20T10:12:22;19.13;;;12.20;;
25917;SDS011;13899;51.174;4.456;2023-02-20T10:20:16;23.42;;;15.52;;
25917;SDS011;13899;51.174;4.456;2023-02-20T10:22:52;16.60;;;12.07;;
25917;SDS011;13899;51.174;4.456;2023-02-20T10:28:03;15.05;;;10.98;;
25917;SDS011;13899;51.174;4.456;2023-02-20T10:30:42;18.42;;;14.75;;
25917;SDS011;13899;51.174;4.456;2023-02-20T10:33:34;17.10;;;13.30;;
25917;SDS011;13899;51.174;4.456;2023-02-20T10:37:14;25.27;;;13.95;;
25917;SDS011;13899;51.174;4.456;2023-02-20T10:39:12;20.73;;;13.30;;
25917;SDS011;13899;51.174;4.456;2023-02-20T10:41:50;18.88;;;14.05;;
25917;SDS011;13899;51.174;4.456;2023-02-20T10:44:35;23.08;;;13.70;;
25917;SDS011;13899;51.174;4.456;2023-02-20T10:47:11;17.23;;;14.30;;
25917;SDS011;13899;51.174;4.456;2023-02-20T10:52:12;20.02;;;13.23;;
25917;SDS011;13899;51.174;4.456;2023-02-20T10:54:45;20.40;;;14.38;;
25917;SDS011;13899;51.174;4.456;2023-02-20T11:02:35;20.63;;;14.73;;
25917;SDS011;13899;51.174;4.456;2023-02-20T11:05:08;14.27;;;11.55;;
25917;SDS011;13899;51.174;4.456;2023-02-20T11:07:37;21.52;;;12.43;;
25917;SDS011;13899;51.174;4.456;2023-02-20T11:10:03;16.47;;;12.43;;
25917;SDS011;13899;51.174;4.456;2023-02-20T11:12:43;20.02;;;12.27;;
25917;SDS011;13899;51.174;4.456;2023-02-20T11:15:15;26.10;;;13.30;;
25917;SDS011;13899;51.174;4.456;2023-02-20T11:17:50;17.92;;;12.95;;
25917;SDS011;13899;51.174;4.456;2023-02-20T11:23:10;20.23;;;14.00;;
25917;SDS011;13899;51.174;4.456;2023-02-20T11:25:55;20.13;;;10.48;;
25917;SDS011;13899;51.174;4.456;2023-02-20T11:28:42;19.38;;;13.77;;
25917;SDS011;13899;51.174;4.456;2023-02-20T11:31:08;16.50;;;13.77;;
25917;SDS011;13899;51.174;4.456;2023-02-20T11:33:35;18.35;;;12.93;;
25917;SDS011;13899;51.174;4.456;2023-02-20T11:36:11;20.33;;;14.70;;
25917;SDS011;13899;51.174;4.456;2023-02-20T11:38:47;18.15;;;15.02;;
25917;SDS011;13899;51.174;4.456;2023-02-20T11:42:03;21.35;;;15.07;;
25917;SDS011;13899;51.174;4.456;2023-02-20T11:46:35;27.23;;;15.38;;
25917;SDS011;13899;51.174;4.456;2023-02-20T11:51:39;16.30;;;14.48;;
25917;SDS011;13899;51.174;4.456;2023-02-20T11:59:29;25.13;;;14.55;;
25917;SDS011;13899;51.174;4.456;2023-02-20T12:07:37;20.75;;;13.77;;
25917;SDS011;13899;51.174;4.456;2023-02-20T12:10:24;22.33;;;17.40;;
25917;SDS011;13899;51.174;4.456;2023-02-20T12:12:53;15.88;;;14.18;;
25917;SDS011;13899;51.174;4.456;2023-02-20T12:15:20;27.93;;;22.03;;
25917;SDS011;13899;51.174;4.456;2023-02-20T12:20:36;20.05;;;17.73;;
25917;SDS011;13899;51.174;4.456;2023-02-20T12:37:06;14.02;;;10.60;;
25917;SDS011;13899;51.174;4.456;2023-02-20T12:39:53;16.88;;;10.52;;
25917;SDS011;13899;51.174;4.456;2023-02-20T12:51:47;14.77;;;12.90;;
25917;SDS011;13899;51.174;4.456;2023-02-20T12:56:24;12.63;;;9.52;;
25917;SDS011;13899;51.174;4.456;2023-02-20T13:02:24;13.48;;;8.80;;
25917;SDS011;13899;51.174;4.456;2023-02-20T13:05:08;16.27;;;9.88;;
25917;SDS011;13899;51.174;4.456;2023-02-20T13:07:46;16.17;;;9.98;;
25917;SDS011;13899;51.174;4.456;2023-02-20T13:12:52;18.77;;;13.63;;
25917;SDS011;13899;51.174;4.456;2023-02-20T13:15:20;9.67;;;8.67;;
25917;SDS011;13899;51.174;4.456;2023-02-20T13:22:56;10.88;;;8.48;;
25917;SDS011;13899;51.174;4.456;2023-02-20T13:28:17;15.23;;;13.35;;
25917;SDS011;13899;51.174;4.456;2023-02-20T13:33:47;12.93;;;7.70;;
25917;SDS011;13899;51.174;4.456;2023-02-20T13:36:17;13.88;;;12.55;;
25917;SDS011;13899;51.174;4.456;2023-02-20T13:54:58;12.90;;;11.57;;
25917;SDS011;13899;51.174;4.456;2023-02-20T13:57:51;11.70;;;8.65;;
25917;SDS011;13899;51.174;4.456;2023-02-20T14:00:31;13.57;;;9.38;;
25917;SDS011;13899;51.174;4.456;2023-02-20T14:03:23;14.95;;;8.40;;
25917;SDS011;13899;51.174;4.456;2023-02-20T14:08:40;27.77;;;25.67;;
25917;SDS011;13899;51.174;4.456;2023-02-20T14:13:36;25.08;;;23.17;;
25917;SDS011;13899;51.174;4.456;2023-02-20T14:16:04;21.27;;;19.27;;
25917;SDS011;13899;51.174;4.456;2023-02-20T14:19:07;22.85;;;20.98;;
25917;SDS011;13899;51.174;4.456;2023-02-20T14:22:12;20.60;;;19.10;;
25917;SDS011;13899;51.174;4.456;2023-02-20T14:24:58;23.35;;;21.25;;
25917;SDS011;13899;51.174;4.456;2023-02-20T14:27:45;20.65;;;18.50;;
25917;SDS011;13899;51.174;4.456;2023-02-20T14:32:45;11.05;;;8.88;;
25917;SDS011;13899;51.174;4.456;2023-02-20T14:38:18;22.10;;;20.05;;
25917;SDS011;13899;51.174;4.456;2023-02-20T14:41:37;23.13;;;20.90;;
25917;SDS011;13899;51.174;4.456;2023-02-20T14:43:57;25.77;;;23.98;;
25917;SDS011;13899;51.174;4.456;2023-02-20T14:46:29;15.02;;;13.05;;
25917;SDS011;13899;51.174;4.456;2023-02-20T14:49:02;30.30;;;28.25;;
25917;SDS011;13899;51.174;4.456;2023-02-20T14:51:33;27.40;;;25.10;;
25917;SDS011;13899;51.174;4.456;2023-02-20T14:54:00;13.55;;;9.60;;
25917;SDS011;13899;51.174;4.456;2023-02-20T14:56:32;15.65;;;11.75;;
25917;SDS011;13899;51.174;4.456;2023-02-20T14:59:14;14.43;;;10.20;;
25917;SDS011;13899;51.174;4.456;2023-02-20T15:02:18;25.33;;;16.65;;
25917;SDS011;13899;51.174;4.456;2023-02-20T15:07:15;26.27;;;24.17;;
25917;SDS011;13899;51.174;4.456;2023-02-20T15:09:44;22.58;;;20.48;;
25917;SDS011;13899;51.174;4.456;2023-02-20T15:12:25;22.55;;;20.50;;
25917;SDS011;13899;51.174;4.456;2023-02-20T15:14:59;22.42;;;20.73;;
25917;SDS011;13899;51.174;4.456;2023-02-20T15:17:31;20.47;;;18.63;;
25917;SDS011;13899;51.174;4.456;2023-02-20T15:20:47;22.25;;;20.52;;
25917;SDS011;13899;51.174;4.456;2023-02-20T15:25:56;20.90;;;19.55;;
25917;SDS011;13899;51.174;4.456;2023-02-20T15:31:04;21.65;;;19.70;;
25917;SDS011;13899;51.174;4.456;2023-02-20T15:33:51;22.30;;;20.10;;
25917;SDS011;13899;51.174;4.456;2023-02-20T15:36:22;20.73;;;19.00;;
25917;SDS011;13899;51.174;4.456;2023-02-20T15:38:54;18.30;;;16.67;;
25917;SDS011;13899;51.174;4.456;2023-02-20T15:41:20;16.17;;;14.65;;
25917;SDS011;13899;51.174;4.456;2023-02-20T15:43:47;20.38;;;18.23;;
25917;SDS011;13899;51.174;4.456;2023-02-20T15:46:13;11.30;;;10.20;;
25917;SDS011;13899;51.174;4.456;2023-02-20T15:48:43;11.82;;;8.63;;
25917;SDS011;13899;51.174;4.456;2023-02-20T15:51:09;14.37;;;9.60;;
25917;SDS011;13899;51.174;4.456;2023-02-20T15:56:01;12.98;;;8.95;;
25917;SDS011;13899;51.174;4.456;2023-02-20T15:58:29;11.43;;;9.00;;
25917;SDS011;13899;51.174;4.456;2023-02-20T16:01:01;13.27;;;8.70;;
25917;SDS011;13899;51.174;4.456;2023-02-20T16:03:29;10.98;;;9.32;;
25917;SDS011;13899;51.174;4.456;2023-02-20T16:05:55;13.88;;;9.25;;
25917;SDS011;13899;51.174;4.456;2023-02-20T16:08:21;12.20;;;8.83;;
25917;SDS011;13899;51.174;4.456;2023-02-20T16:10:48;11.60;;;8.13;;
25917;SDS011;13899;51.174;4.456;2023-02-20T16:13:35;12.95;;;8.68;;
25917;SDS011;13899;51.174;4.456;2023-02-20T16:16:21;14.75;;;9.35;;
25917;SDS011;13899;51.174;4.456;2023-02-20T16:18:53;10.88;;;9.00;;
25917;SDS011;13899;51.174;4.456;2023-02-20T16:21:19;9.43;;;8.53;;
25917;SDS011;13899;51.174;4.456;2023-02-20T16:23:45;14.25;;;8.45;;
25917;SDS011;13899;51.174;4.456;2023-02-20T16:26:13;16.67;;;9.07;;
25917;SDS011;13899;51.174;4.456;2023-02-20T16:28:45;9.70;;;8.38;;
25917;SDS011;13899;51.174;4.456;2023-02-20T16:31:14;13.40;;;9.05;;
25917;SDS011;13899;51.174;4.456;2023-02-20T16:33:39;11.23;;;9.10;;
25917;SDS011;13899;51.174;4.456;2023-02-20T16:36:05;13.18;;;9.10;;
25917;SDS011;13899;51.174;4.456;2023-02-20T16:38:30;15.10;;;8.38;;
25917;SDS011;13899;51.174;4.456;2023-02-20T16:40:58;9.90;;;8.57;;
25917;SDS011;13899;51.174;4.456;2023-02-20T16:43:27;11.40;;;9.75;;
25917;SDS011;13899;51.174;4.456;2023-02-20T16:45:53;11.95;;;8.52;;
25917;SDS011;13899;51.174;4.456;2023-02-20T16:48:19;13.52;;;9.20;;
25917;SDS011;13899;51.174;4.456;2023-02-20T16:50:49;19.67;;;10.18;;
25917;SDS011;13899;51.174;4.456;2023-02-20T16:53:17;9.52;;;8.52;;
25917;SDS011;13899;51.174;4.456;2023-02-20T16:55:44;11.57;;;8.77;;
25917;SDS011;13899;51.174;4.456;2023-02-20T16:58:11;12.95;;;8.80;;
25917;SDS011;13899;51.174;4.456;2023-02-20T17:00:38;11.88;;;8.52;;
25917;SDS011;13899;51.174;4.456;2023-02-20T17:03:06;10.23;;;9.23;;
25917;SDS011;13899;51.174;4.456;2023-02-20T17:05:34;9.90;;;8.90;;
25917;SDS011;13899;51.174;4.456;2023-02-20T17:08:01;10.50;;;9.00;;
25917;SDS011;13899;51.174;4.456;2023-02-20T17:10:27;11.60;;;9.50;;
25917;SDS011;13899;51.174;4.456;2023-02-20T17:12:54;13.07;;;10.50;;
25917;SDS011;13899;51.174;4.456;2023-02-20T17:15:20;12.30;;;9.25;;
25917;SDS011;13899;51.174;4.456;2023-02-20T17:17:47;10.73;;;9.23;;
25917;SDS011;13899;51.174;4.456;2023-02-20T17:20:14;12.53;;;9.20;;
25917;SDS011;13899;51.174;4.456;2023-02-20T17:22:42;11.32;;;8.82;;
25917;SDS011;13899;51.174;4.456;2023-02-20T17:25:15;10.23;;;9.27;;
25917;SDS011;13899;51.174;4.456;2023-02-20T17:27:43;10.73;;;9.52;;
25917;SDS011;13899;51.174;4.456;2023-02-20T17:30:09;14.20;;;11.10;;
25917;SDS011;13899;51.174;4.456;2023-02-20T17:32:36;13.13;;;10.60;;
25917;SDS011;13899;51.174;4.456;2023-02-20T17:35:01;17.75;;;11.68;;
25917;SDS011;13899;51.174;4.456;2023-02-20T17:37:27;13.43;;;10.67;;
25917;SDS011;13899;51.174;4.456;2023-02-20T17:39:57;17.25;;;11.85;;